Oihan López

Recruteur en chef - Real Sociedad
2 Sept 2027
Jeudi
Processus

Personnalité

Adaptabilité (6) Ambition (6) Controverse (12) Loyauté (19) Pression (11) Professionnalisme (1) Sportivité (4) Tempérament (18)

Profil

Style d'entraînement Démocratique
Diplôme Continental C
Détermination 8
Gestion des joueurs 8
Motivation 11
Discipline 8
Satisfaction professionnelle
100%
Fatigue
0%
Rôle Recruteur en chef
Salaire 98.1K p/s
Contrat 14.03.2030

Performance

Comportement Bon
Efficacité de l'entraînement
51%
Développement des joueurs
60%
Prévention des blessures
75%
Mise en place tactique
65%

Événements récents

A évalué un joueur 7j
A participé à une réunion de recrutement 7j
A participé à une réunion de recrutement 7j
A observé un match 7j
A participé à une réunion de recrutement 14j
A participé à une réunion de recrutement 14j
A présenté un dossier au conseil 14j
A observé un match 14j

Suivi en cours

167
Joueur Club Statut Capacité Confiance Observé Dernière observation Dernier vote
Mbekezeli Mbokazi Chicago Fire Actif 121 / 127 40% 1 23.08.2027 -
Ismail Al Suwaidi Al Fujairah Actif 118 / 127 40% 1 23.08.2027 -
Javi Rodríguez Celta Actif 148 / 148 40% 2 16.08.2027 -
Kike Salas Sevilla Actif 139 / 143 40% 1 16.08.2027 -
Finley McAllister Grimsby Town Actif 102 / 96 40% 1 09.08.2027 -
Tobias Slotsager Casertana Actif 112 / 116 40% 1 03.08.2027 -
Christ Inao Oulaï Fiorentina Actif 145 / 148 40% 1 03.08.2027 -
Jofre Torrents Ajax Actif 138 / 140 40% 2 26.07.2027 -
Juan Giménez Celta Actif 113 / 126 40% 2 26.07.2027 -
Johan Manzambi Newcastle United Actif 142 / 150 40% 1 19.07.2027 -
Jorrel Hato Chelsea Actif 160 / 158 40% 3 12.07.2027 -
Toni Tamarit Alverca Actif 116 / 129 40% 1 12.07.2027 -
João Simões Sporting CP Actif 143 / 137 40% 4 05.07.2027 -
Daniel Kelly Oxford United Actif 115 / 123 40% 1 05.07.2027 -
Ez Abde Girona Actif 157 / 154 40% 1 21.06.2027 -
Assane Diao Lazio Négociation 157 / 150 40% 1 21.06.2027 -
Maren Kefas Plateau United Actif 85 / 97 40% 1 16.06.2027 -
Iwan Morgan Grimsby Town Perdu 121 / 116 40% 1 16.06.2027 -
Reuben Reid Barnsley Actif 90 / 106 40% 1 14.06.2027 -
Fletcher Holman Swindon Town Actif 84 / 87 40% 1 14.06.2027 -
Tiziano Dornell Danubio Actif 110 / 127 40% 1 07.06.2027 -
Othmane Maamma Watford Actif 121 / 123 40% 2 06.06.2027 -
Luís Guilherme Sporting CP Perdu 138 / 130 40% 1 03.06.2027 -
Mfundo Vilakazi Kaizer Chiefs Perdu 121 / 112 40% 1 02.06.2027 -
Rodrigo Mora AS Roma Actif 133 / 141 40% 1 01.06.2027 -
Raúl Rangel Sporting CP Actif 129 / 139 40% 2 30.05.2027 -
Beau Reus Waasland-Beveren Actif 137 / 126 40% 5 29.05.2027 -
Berke Özer LOSC Lille Actif 135 / 137 40% 2 29.05.2027 -
Ricky Atletico Venezuela Actif 105 / 104 40% 1 29.05.2027 -
Darryl Bakola Padova Actif 99 / 116 40% 1 29.05.2027 -
Radek Vítek Middlesbrough Actif 147 / 144 40% 4 27.05.2027 -
Franco Israel Torino Actif 132 / 134 40% 2 27.05.2027 -
Mads Hermansen West Ham United Actif 152 / 142 40% 4 24.05.2027 -
Erick Reyes Toluca Actif 140 / 137 40% 3 24.05.2027 -
Jonathan Fischer FC Metz Actif 124 / 136 40% 2 23.05.2027 -
Kevin Vazquez Cruz Azul Actif 132 / 144 40% 9 22.05.2027 -
Felipe Parra Envigado Actif 120 / 127 40% 1 22.05.2027 -
Lorenzo Palmisani Frosinone Actif 125 / 138 40% 6 20.05.2027 -
Yusi Alavés Actif 119 / 138 40% 2 20.05.2027 -
Ernie Weaver AFC Wimbledon Actif 99 / 122 40% 1 20.05.2027 -
Fernando Tapia Club America Actif 123 / 143 40% 1 20.05.2027 -
Ethan Williams Peterborough United Actif 109 / 113 40% 1 20.05.2027 -
Thomas De Bruyne Mouscron Actif 134 / 126 40% 2 18.05.2027 -
Keisuke Osako Sanfrecce Hiroshima Actif 151 / 132 40% 1 14.05.2027 -
Julen Agirrezabala Racing Santander Actif 150 / 146 40% 5 11.05.2027 -
João Teixeira Porto Actif 115 / 112 40% 3 10.05.2027 -
Davide Bartesaghi AC Milan Actif 121 / 132 40% 1 10.05.2027 -
Robin Roefs Sunderland Actif 148 / 144 40% 2 09.05.2027 -
Joan García Barcelona Actif 179 / 161 40% 3 06.05.2027 -
Bento Al-Nassr Actif 146 / 143 40% 2 04.05.2027 -
Diego Romero Universitario Actif 114 / 132 40% 2 02.05.2027 -
Yehvann Diouf OGC Nice Actif 143 / 139 40% 2 28.04.2027 -
Senne Lammens Manchester United Actif 151 / 147 40% 3 26.04.2027 -
Cezary Miszta Rio Ave Actif 142 / 132 40% 4 25.04.2027 -
Warren Zaïre-Emery Paris Saint-Germain Actif 146 / 167 40% 3 21.04.2027 -
Edoardo Motta Lazio Actif 122 / 127 40% 1 19.04.2027 -
Christos Mouzakitis Hull City Actif 120 / 139 40% 2 16.04.2027 -
Guillaume Restes Toulouse FC Actif 136 / 145 40% 4 16.04.2027 -
Matías Gómez Granada Actif 102 / 125 40% 2 16.04.2027 -
Maduka Okoye Udinese Actif 147 / 140 40% 3 10.04.2027 -
Kostantis Tzolakis Hull City Actif 139 / 146 40% 1 07.04.2027 Plus d'infos
Niklas Hedl Zurich Actif 123 / 120 40% 1 05.04.2027 -
Guilherme Fernandes Córdoba Actif 133 / 128 40% 2 04.04.2027 -
Ibrahim Maza Bayer Leverkusen Actif 146 / 149 40% 2 01.04.2027 -
Rayan Bournemouth Actif 125 / 143 40% 1 28.03.2027 -
Anatolii Trubin Juventus Actif 149 / 158 40% 1 24.03.2027 -
Josh King Chelsea Actif 148 / 139 40% 1 23.03.2027 -
James Trafford Leeds United Actif 139 / 147 40% 2 20.03.2027 -
Pablo Campos Levante Actif 137 / 127 40% 1 19.03.2027 -
Lucas Høgsberg RC Strasbourg Actif 143 / 142 40% 2 17.03.2027 -
Joaquin Seys Club Brugge Actif 121 / 126 40% 1 17.03.2027 -
Didier Mercier Chamois Niortais Actif 118 / 123 40% 1 16.03.2027 -
Michael Cooper Sheffield United Actif 130 / 130 40% 1 16.03.2027 -
Jonmi Magunagoitia Eibar Actif 117 / 133 40% 2 12.03.2027 -
David Ozoh Derby County Actif 126 / 127 40% 1 12.03.2027 -
Riley Owen Trento Actif 99 / 114 40% 1 11.03.2027 -
Bernardo Lima Porto Actif 96 / 100 40% 1 11.03.2027 -
Jan Virgili Club Brugge Actif 134 / 137 40% 1 10.03.2027 -
James Dornelly Peterborough United Actif 101 / 108 40% 2 09.03.2027 -
Senny Mayulu Paris Saint-Germain Actif 134 / 156 40% 1 09.03.2027 -
Yussif Saidu Zaragoza Actif 122 / 121 40% 2 08.03.2027 -
Jamie Cumming Oxford United Actif 119 / 125 40% 1 05.03.2027 -
Manuel Roffo Cerro Porteno Actif 141 / 133 40% 1 05.03.2027 -
Elías Rafn Ólafsson FC Midtjylland Actif 122 / 115 40% 1 04.03.2027 -
Sascha Britschgi Padova Actif 108 / 132 40% 1 02.03.2027 -
Dylan Lawlor Cardiff City Actif 124 / 118 40% 2 01.03.2027 -
Mateusz Kochalski Dynamo Kyiv Actif 119 / 138 40% 1 28.02.2027 -
Grégoire Coudert Burnley Actif 139 / 127 40% 1 26.02.2027 -
Deniz Ertaş Konyaspor Actif 113 / 115 40% 1 21.02.2027 -
Keagan Tau Ajax Cape Town Actif 83 / 111 40% 1 17.02.2027 -
Lazar Carević Famalicao Actif 140 / 134 40% 1 16.02.2027 -
Caleb Yirenkyi Coventry City Actif 129 / 142 40% 1 10.02.2027 -
Daniel Vernattus Metalist Actif 73 / 102 40% 1 07.02.2027 -
Patrick Sequeira Casa Pia Actif 132 / 132 40% 1 05.02.2027 -
Andriy Lunin Real Madrid Actif 161 / 155 40% 1 02.02.2027 -
Tiago Santos LOSC Lille Actif 143 / 138 40% 1 28.01.2027 -
Omar Campos Cruz Azul Actif 117 / 132 40% 3 30.12.2026 -
Brahim Díaz Real Madrid Actif 151 / 152 40% 3 30.12.2026 -
Kang-In Lee Atlético Madrid Actif 151 / 156 40% 4 29.12.2026 -
Giacomo Raspadori Atalanta Actif 151 / 149 40% 1 29.12.2026 -
Paulinho Palmeiras Actif 138 / 140 40% 4 26.12.2026 -
Pablo Barrios Atlético Madrid Actif 161 / 166 40% 3 23.12.2026 -
Efraín Álvarez Guadalajara Actif 127 / 127 40% 2 23.12.2026 -
Erick Sánchez OGC Nice Actif 132 / 136 40% 5 22.12.2026 -
Ramiro Sordo Santos Laguna Actif 104 / 114 40% 1 22.12.2026 -
Callum Hudson-Odoi Nottingham Forest Actif 152 / 144 40% 1 21.12.2026 -
Jonathan Dubasin Osasuna Actif 148 / 136 40% 1 21.12.2026 -
Álex Baena Atlético Madrid Actif 159 / 158 40% 2 18.12.2026 -
Iliman N'Diaye Everton Actif 157 / 151 40% 3 17.12.2026 -
Mason Mount Manchester United Actif 142 / 149 40% 1 17.12.2026 -
Ozziel Herrera Tigres Actif 130 / 133 40% 2 15.12.2026 -
Eduardo Dos Santos Veracruz Actif 108 / 113 40% 2 14.12.2026 -
Jude Bellingham Real Madrid Actif 165 / 175 40% 1 14.12.2026 -
Matt O'Riley Brighton Actif 143 / 141 40% 1 12.12.2026 -
Gabriel Martinelli Brighton Actif 163 / 159 40% 2 10.12.2026 -
Diego Lainez Tigres Actif 112 / 119 40% 4 08.12.2026 -
Marquinhos Spartak Moscow Actif 143 / 122 40% 1 08.12.2026 -
Bryan Gil Girona Actif 135 / 145 40% 1 05.12.2026 -
Nicolas Jackson Aston Villa Actif 139 / 151 40% 1 05.12.2026 -
Tani Oluwaseyi Villarreal Actif 136 / 143 40% 1 02.12.2026 -
Kevin Fulham Actif 137 / 148 40% 1 01.12.2026 -
Tom Fellows Southampton Actif 129 / 127 40% 2 27.11.2026 -
Pedro Vite Pumas UNAM Actif 135 / 115 40% 1 27.11.2026 -
Martin Ødegaard Arsenal Actif 177 / 182 40% 3 24.11.2026 -
Nicolás Castro Toluca Actif 121 / 125 40% 1 23.11.2026 -
Pol Lozano Espanyol Actif 141 / 143 40% 1 23.11.2026 -
Rodrygo Real Madrid Actif 160 / 164 40% 2 21.11.2026 -
Ramiro Ruiz Rodríguez Atlético Tucumán Actif 127 / 126 40% 3 21.11.2026 -
Joaquín Gho Argentinos Juniors Actif 118 / 123 40% 3 18.11.2026 -
Ezequiel Bullaude Santos Laguna Actif 135 / 129 40% 1 17.11.2026 -
Brian Gutiérrez Guadalajara Actif 120 / 132 40% 1 16.11.2026 -
Alex Luna Instituto Actif 129 / 129 40% 1 12.11.2026 -
Rayan Cherki Manchester City Actif 171 / 163 40% 2 11.11.2026 -
Carlos Vicente Birmingham Actif 152 / 136 40% 3 10.11.2026 -
Johnny Cardoso Atlético Madrid Actif 154 / 157 40% 1 10.11.2026 -
Tiago Palacios Estudiantes Actif 123 / 126 40% 2 09.11.2026 -
Carlos Palacios Boca Juniors Actif 123 / 129 40% 3 05.11.2026 -
João Pedro Chelsea Actif 163 / 146 40% 1 05.11.2026 -
Aimar Osasuna Actif 136 / 143 40% 1 23.10.2026 -
Enzo Fernández Manchester City Actif 173 / 165 40% 1 22.10.2026 -
Matko Miljevic Racing Club Actif 136 / 121 40% 1 22.10.2026 -
Alan Velasco Boca Juniors Actif 129 / 122 40% 1 21.10.2026 -
Mateo Zuleta Once Caldas Actif 110 / 126 40% 1 20.10.2026 -
Hector Ramirez Newcastle United Actif 158 / 159 40% 3 19.10.2026 -
Bryan González Guadalajara Actif 111 / 136 40% 2 16.10.2026 -
Iker Benito Queretaro Actif 105 / 112 40% 2 14.10.2026 -
César Ibáñez Huracán Actif 129 / 118 40% 1 10.10.2026 -
Moisés Caicedo Chelsea Actif 168 / 177 40% 1 10.10.2026 -
Adalberto Carrasquilla Pumas UNAM Actif 113 / 115 40% 1 08.10.2026 -
Fidel Ambríz Monterrey Actif 109 / 126 40% 1 07.10.2026 -
Alexander Díaz Deportivo Riestra Actif 128 / 111 40% 1 01.10.2026 -
Santiago Montiel Independiente Actif 118 / 119 40% 2 28.09.2026 -
Brian Rodríguez Club America Actif 130 / 121 40% 1 28.09.2026 -
Axel Batista Quilmes Actif 122 / 120 40% 1 26.09.2026 -
Juan Manuel Zapata Envigado Actif 106 / 111 40% 1 26.09.2026 -
Matías Fernández Independiente Rivadavia Actif 132 / 127 40% 2 24.09.2026 -
Boubacar Kamara Aston Villa Actif 151 / 158 40% 1 24.09.2026 -
Juan Pablo Domínguez Leon Actif 119 / 128 40% 1 20.09.2026 -
Alexis Cuello San Lorenzo Actif 135 / 121 40% 1 16.09.2026 -
Kai Havertz Arsenal Actif 168 / 165 40% 1 11.09.2026 -
Eduardo Camavinga Real Madrid Actif 161 / 172 40% 1 10.09.2026 -
Pedri Barcelona Actif 181 / 175 40% 1 09.09.2026 -
Reece James Chelsea Actif 175 / 172 40% 1 08.09.2026 -
Alan Forneris Racing Club Actif 110 / 116 40% 1 31.08.2026 -
Gianluigi Donnarumma Manchester City Actif 172 / 177 40% 1 24.08.2026 -
Rafael Hornos Liverpool Montevideo Actif 99 / 89 40% 1 05.08.2026 -
Gabriel Jesus Barcelona Actif 144 / 147 40% 1 01.08.2026 -